Time;durP1;ratioP1;P1;durP2;ratioP2;P2;SDS_P1;SDS_P2;PMS_P1;PMS_P2;Temp;Humidity;BMP_temperature;BMP_pressure;BME280_temperature;BME280_humidity;BME280_pressure;Samples;Min_cycle;Max_cycle;Signal;HPM_P1;HPM_P2
2022/11/25 00:02:59;;;;;;;23.50;5.53;;;;;;;5.31;100.00;100976.19;10627052;27;20043;-72
2022/11/25 00:08:00;;;;;;;13.10;5.03;;;;;;;5.37;100.00;100975.34;10608738;27;20042;-72
2022/11/25 00:13:00;;;;;;;28.60;4.97;;;;;;;5.46;100.00;100974.88;10583189;27;20039;-72
2022/11/25 00:18:01;;;;;;;19.58;6.57;;;;;;;5.50;100.00;100963.50;10585957;27;20039;-73
2022/11/25 00:23:01;;;;;;;18.63;4.13;;;;;;;5.54;100.00;100965.59;10586007;27;20060;-72
2022/11/25 00:28:02;;;;;;;18.38;5.65;;;;;;;5.68;100.00;100977.25;10549828;27;20027;-72
2022/11/25 00:33:02;;;;;;;20.05;5.50;;;;;;;5.70;100.00;100958.75;10566734;27;20106;-72
2022/11/25 00:38:03;;;;;;;21.05;5.60;;;;;;;5.78;100.00;100942.09;10583253;27;20066;-72
2022/11/25 00:48:22;;;;;;;17.08;5.40;;;;;;;5.97;100.00;100942.22;10583795;28;20104;-73
2022/11/25 00:53:24;;;;;;;18.23;5.05;;;;;;;6.03;100.00;100935.84;10582673;27;20568;-73
2022/11/25 00:58:24;;;;;;;12.05;4.05;;;;;;;6.06;100.00;100938.16;10565750;27;20087;-73
2022/11/25 01:03:24;;;;;;;12.52;4.30;;;;;;;6.04;100.00;100943.84;10565521;27;20040;-74
2022/11/25 01:08:25;;;;;;;15.27;4.10;;;;;;;6.01;100.00;100944.28;10582118;27;20036;-73
2022/11/25 01:13:25;;;;;;;13.30;4.20;;;;;;;6.03;100.00;100933.13;10582043;27;20061;-73
2022/11/25 01:18:27;;;;;;;14.10;4.32;;;;;;;6.03;100.00;100941.31;10584636;27;20040;-72
2022/11/25 01:23:27;;;;;;;22.83;5.13;;;;;;;6.04;100.00;100932.09;10581400;27;20057;-73
2022/11/25 01:28:28;;;;;;;23.52;5.13;;;;;;;5.99;100.00;100912.75;10581845;27;20031;-73
2022/11/25 01:33:31;;;;;;;16.00;4.55;;;;;;;6.06;100.00;100935.44;10582903;27;20074;-72
2022/11/25 01:38:31;;;;;;;17.25;3.78;;;;;;;6.07;100.00;100948.03;10579719;28;20028;-73
2022/11/25 01:43:32;;;;;;;16.95;4.20;;;;;;;6.03;100.00;100949.53;10581358;27;20035;-73
2022/11/25 01:48:51;;;;;;;17.63;4.65;;;;;;;5.98;100.00;100932.97;10583274;28;20031;-73
2022/11/25 01:53:53;;;;;;;15.63;4.05;;;;;;;6.00;100.00;100933.59;10581529;28;20050;-72
2022/11/25 01:58:54;;;;;;;17.52;4.20;;;;;;;6.02;100.00;100931.47;10563960;28;20031;-73
2022/11/25 02:03:54;;;;;;;17.77;4.43;;;;;;;6.03;100.00;100924.94;10546478;27;20043;-73
2022/11/25 02:08:57;;;;;;;16.55;5.03;;;;;;;6.00;100.00;100928.13;10563445;27;20061;-72
2022/11/25 02:13:58;;;;;;;12.60;4.85;;;;;;;6.05;100.00;100928.28;10563315;27;20082;-72
2022/11/25 02:18:58;;;;;;;16.23;3.90;;;;;;;6.04;100.00;100926.63;10547243;27;20035;-72
2022/11/25 02:24:10;;;;;;;18.95;3.92;;;;;;;6.07;100.00;100942.56;10564139;27;20057;-72
2022/11/25 02:29:11;;;;;;;17.27;5.13;;;;;;;6.08;100.00;100933.31;10580030;27;20053;-73
2022/11/25 02:34:11;;;;;;;14.50;5.13;;;;;;;6.05;100.00;100928.28;10563000;27;20055;-73
2022/11/25 02:39:12;;;;;;;14.48;3.70;;;;;;;6.14;100.00;100928.81;10588241;27;20040;-73
2022/11/25 02:44:13;;;;;;;16.92;4.85;;;;;;;6.11;100.00;100905.50;10589125;27;20040;-73
2022/11/25 02:49:13;;;;;;;19.08;4.18;;;;;;;6.20;100.00;100931.53;10589187;27;20047;-73
2022/11/25 02:54:14;;;;;;;19.30;4.40;;;;;;;6.16;100.00;100924.84;10587083;27;20061;-73
2022/11/25 02:59:15;;;;;;;13.80;4.28;;;;;;;6.10;100.00;100920.25;10570518;27;20031;-73
2022/11/25 03:04:15;;;;;;;18.65;4.40;;;;;;;6.18;100.00;100943.72;10586694;27;20051;-73
2022/11/25 03:09:15;;;;;;;19.70;4.45;;;;;;;6.12;100.00;100929.06;10587851;27;20039;-71
2022/11/25 03:14:16;;;;;;;20.80;5.25;;;;;;;6.15;100.00;100935.97;10571464;27;20096;-73
2022/11/25 03:19:16;;;;;;;17.88;4.85;;;;;;;6.09;100.00;100920.47;10589320;27;20063;-73
2022/11/25 03:24:17;;;;;;;23.88;7.43;;;;;;;6.04;100.00;100910.22;10584838;27;20071;-73
2022/11/25 03:29:17;;;;;;;14.45;5.28;;;;;;;6.02;100.00;100923.28;10585637;28;20087;-73
2022/11/25 03:34:18;;;;;;;23.25;6.13;;;;;;;5.98;100.00;100927.50;10568569;27;20093;-72
2022/11/25 03:39:18;;;;;;;24.85;6.68;;;;;;;6.10;100.00;100939.38;10587940;27;20046;-73
2022/11/25 03:44:19;;;;;;;24.27;5.68;;;;;;;6.09;100.00;100945.91;10534813;27;20051;-72
2022/11/25 03:49:20;;;;;;;24.85;6.40;;;;;;;6.11;100.00;100951.16;10586104;27;20035;-73
2022/11/25 03:54:21;;;;;;;27.77;6.10;;;;;;;5.97;100.00;100932.09;10587191;27;20043;-72
2022/11/25 03:59:21;;;;;;;16.75;6.00;;;;;;;6.04;100.00;100938.38;10587809;27;20628;-73
2022/11/25 04:04:22;;;;;;;33.40;7.03;;;;;;;6.05;100.00;100939.22;10567627;27;20039;-72
2022/11/25 04:09:24;;;;;;;20.65;7.95;;;;;;;6.12;100.00;100947.34;10585491;27;20055;-73
2022/11/25 04:14:25;;;;;;;30.10;7.47;;;;;;;6.10;100.00;100944.84;10585572;27;20169;-73
2022/11/25 04:19:25;;;;;;;25.08;8.02;;;;;;;5.93;100.00;100909.00;10587006;27;20461;-73
2022/11/25 04:24:26;;;;;;;30.55;7.57;;;;;;;5.84;100.00;100911.16;10585795;27;20430;-73
2022/11/25 04:29:27;;;;;;;19.38;7.60;;;;;;;6.12;100.00;100956.41;10566442;27;20099;-73
2022/11/25 04:34:27;;;;;;;24.35;8.02;;;;;;;6.14;100.00;100958.91;10583557;27;20035;-72
2022/11/25 04:39:28;;;;;;;25.50;8.20;;;;;;;6.17;100.00;100964.75;10584224;27;20066;-72
2022/11/25 04:44:28;;;;;;;26.95;7.82;;;;;;;6.11;100.00;100959.34;10583589;27;20061;-73
2022/11/25 04:49:29;;;;;;;22.23;7.90;;;;;;;6.19;100.00;100972.75;10584581;27;20122;-72
2022/11/25 04:54:29;;;;;;;29.52;9.07;;;;;;;5.81;100.00;100925.28;10583649;27;20048;-72
2022/11/25 04:59:38;;;;;;;28.73;8.43;;;;;;;6.16;100.00;100968.56;10583388;27;20075;-72
2022/11/25 05:04:40;;;;;;;34.05;9.35;;;;;;;6.25;100.00;100980.88;10565852;27;20044;-72
2022/11/25 05:09:40;;;;;;;33.45;8.93;;;;;;;6.19;100.00;100976.31;10548743;27;20046;-72
2022/11/25 05:14:42;;;;;;;30.77;8.45;;;;;;;6.26;100.00;100985.31;10583107;27;20103;-72
2022/11/25 05:19:43;;;;;;;29.90;8.90;;;;;;;6.32;100.00;100985.47;10584102;27;20027;-72
2022/11/25 05:24:43;;;;;;;32.92;10.73;;;;;;;6.16;100.00;100956.78;10563875;27;20039;-72
2022/11/25 05:29:44;;;;;;;27.55;9.80;;;;;;;6.33;100.00;100978.94;10581402;27;20031;-72
2022/11/25 05:34:44;;;;;;;31.27;9.48;;;;;;;6.22;100.00;100973.16;10581799;28;20027;-73
2022/11/25 05:39:45;;;;;;;29.63;8.75;;;;;;;6.31;100.00;100989.28;10582113;27;20081;-72
2022/11/25 05:44:45;;;;;;;24.63;8.43;;;;;;;6.26;100.00;100990.78;10581529;28;20039;-72
2022/11/25 05:49:46;;;;;;;27.25;8.27;;;;;;;6.26;100.00;100995.38;10581758;27;20032;-72
2022/11/25 05:54:46;;;;;;;23.92;9.98;;;;;;;5.99;100.00;100954.59;10582012;27;20050;-72
2022/11/25 05:59:47;;;;;;;23.10;10.18;;;;;;;6.22;100.00;101000.47;10519358;28;20028;-72
2022/11/25 06:04:47;;;;;;;29.88;10.02;;;;;;;6.10;100.00;100990.47;10504146;28;20036;-73
2022/11/25 06:09:49;;;;;;;34.10;10.85;;;;;;;6.29;100.00;101016.00;10538776;28;20040;-72
2022/11/25 06:14:50;;;;;;;25.45;10.02;;;;;;;6.29;100.00;101016.81;10504942;28;20107;-73
2022/11/25 06:19:50;;;;;;;32.22;9.63;;;;;;;6.32;100.00;101021.00;10520663;28;20039;-73
2022/11/25 06:24:50;;;;;;;28.63;10.55;;;;;;;6.33;100.00;101022.69;10533806;28;20043;-73
2022/11/25 06:29:51;;;;;;;29.80;9.55;;;;;;;6.39;100.00;101032.75;10461183;28;20033;-73
2022/11/25 06:34:51;;;;;;;40.22;12.02;;;;;;;6.42;100.00;101045.97;10518505;28;20032;-72
2022/11/25 06:39:52;;;;;;;27.65;10.77;;;;;;;6.30;100.00;101028.59;10504116;28;20036;-71
2022/11/25 06:44:52;;;;;;;28.48;10.73;;;;;;;6.32;100.00;101031.94;10539838;28;20044;-72
2022/11/25 06:49:53;;;;;;;37.28;11.32;;;;;;;6.47;100.00;101057.91;10520449;28;20032;-72
2022/11/25 06:54:53;;;;;;;32.88;11.88;;;;;;;6.40;100.00;101057.13;10538335;28;20029;-72
2022/11/25 06:59:54;;;;;;;25.98;11.57;;;;;;;6.48;100.00;101069.69;10537715;28;20032;-72
2022/11/25 07:04:54;;;;;;;33.25;13.30;;;;;;;6.37;100.00;101054.84;10528980;28;20043;-72
2022/11/25 07:09:55;;;;;;;39.10;14.48;;;;;;;6.57;100.00;101079.28;10538359;28;20427;-72
2022/11/25 07:14:55;;;;;;;32.85;13.73;;;;;;;6.66;100.00;101088.91;10538783;28;20450;-72
2022/11/25 07:19:56;;;;;;;30.75;14.38;;;;;;;6.67;100.00;101096.03;10538395;28;20071;-74
2022/11/25 07:24:56;;;;;;;34.47;13.27;;;;;;;6.67;100.00;101097.94;10584726;27;20031;-73
2022/11/25 07:29:56;;;;;;;41.78;13.57;;;;;;;6.65;100.00;101098.16;10562181;28;20040;-72
2022/11/25 07:34:57;;;;;;;30.38;13.55;;;;;;;6.62;100.00;101108.72;10568719;27;20036;-73
2022/11/25 07:39:57;;;;;;;41.40;14.68;;;;;;;6.59;100.00;101123.66;10573075;28;20028;-73
2022/11/25 07:44:58;;;;;;;31.73;13.60;;;;;;;6.60;100.00;101127.25;10566028;27;20047;-72
2022/11/25 07:49:58;;;;;;;34.72;14.43;;;;;;;6.59;100.00;101120.09;10547011;27;20036;-72
2022/11/25 07:54:59;;;;;;;33.33;14.05;;;;;;;6.74;100.00;101122.50;10563521;28;20044;-72
2022/11/25 07:59:59;;;;;;;41.58;16.83;;;;;;;6.85;100.00;101135.47;10561226;27;20031;-73
2022/11/25 08:05:00;;;;;;;34.47;12.27;;;;;;;6.93;100.00;101164.47;10612117;27;20031;-73
2022/11/25 08:10:03;;;;;;;32.45;12.27;;;;;;;6.95;100.00;101145.94;10624326;27;20039;-73
2022/11/25 08:15:05;;;;;;;28.10;10.85;;;;;;;6.93;100.00;101143.41;10603279;27;20035;-73
2022/11/25 08:20:06;;;;;;;28.83;11.55;;;;;;;7.01;100.00;101159.56;10604930;27;20349;-73
2022/11/25 08:25:07;;;;;;;27.45;10.10;;;;;;;7.01;100.00;101162.28;10570120;27;20040;-73
2022/11/25 08:30:08;;;;;;;35.53;11.60;;;;;;;7.18;100.00;101179.00;10535277;28;20032;-74
2022/11/25 08:35:08;;;;;;;23.92;9.80;;;;;;;7.20;100.00;101176.88;10565244;27;20050;-73
2022/11/25 08:40:09;;;;;;;27.70;10.57;;;;;;;7.28;100.00;101186.69;10581679;27;20035;-72
2022/11/25 08:45:10;;;;;;;24.92;8.63;;;;;;;7.32;100.00;101192.53;10584842;27;22641;-73
2022/11/25 08:50:12;;;;;;;28.00;8.82;;;;;;;7.30;100.00;101180.97;10566485;28;20028;-73
2022/11/25 08:55:13;;;;;;;26.70;9.38;;;;;;;7.43;100.00;101192.66;10583257;27;20065;-73
2022/11/25 09:00:14;;;;;;;21.98;9.57;;;;;;;7.35;100.00;101172.94;10583683;27;20502;-73
2022/11/25 09:05:15;;;;;;;28.73;10.90;;;;;;;7.46;100.00;101197.69;10584445;27;20562;-73
2022/11/25 09:10:16;;;;;;;20.15;10.15;;;;;;;7.38;100.00;101189.78;10576948;27;20052;-72
2022/11/25 09:15:16;;;;;;;28.15;10.68;;;;;;;7.08;100.00;101145.81;10551188;28;20496;-73
2022/11/25 09:20:17;;;;;;;22.80;10.52;;;;;;;7.59;100.00;101221.38;10541852;28;20253;-73
2022/11/25 09:25:18;;;;;;;20.90;9.63;;;;;;;7.67;100.00;101217.53;10582571;27;20040;-73
2022/11/25 09:30:18;;;;;;;22.50;9.40;;;;;;;7.79;100.00;101229.41;10583274;27;20044;-73
2022/11/25 09:35:19;;;;;;;18.70;8.25;;;;;;;7.96;100.00;101234.25;10582000;28;20035;-73
2022/11/25 09:40:33;;;;;;;26.55;11.50;;;;;;;8.14;100.00;101231.50;10565141;27;20046;-74
2022/11/25 09:51:01;;;;;;;13.75;7.75;;;;;;;8.22;100.00;101250.41;10578899;28;20040;-74
2022/11/25 09:56:02;;;;;;;20.40;8.20;;;;;;;8.18;100.00;101253.84;10562083;28;20047;-74
2022/11/25 10:01:11;;;;;;;24.55;8.10;;;;;;;8.20;100.00;101269.00;10529955;27;20047;-74
2022/11/25 10:06:11;;;;;;;18.35;8.43;;;;;;;8.24;100.00;101269.38;10545500;28;20039;-74
2022/11/25 10:11:27;;;;;;;19.02;7.95;;;;;;;8.33;100.00;101276.25;10580577;28;20036;-74
2022/11/25 10:16:37;;;;;;;14.48;6.85;;;;;;;8.45;100.00;101270.84;10537628;28;20035;-74
2022/11/25 10:21:37;;;;;;;17.63;6.63;;;;;;;8.24;100.00;101234.56;10538265;28;20036;-73
2022/11/25 10:26:40;;;;;;;20.58;6.55;;;;;;;8.44;100.00;101249.97;10520118;28;20033;-73
2022/11/25 10:31:41;;;;;;;13.05;5.85;;;;;;;8.62;100.00;101271.03;10531529;28;20036;-73
2022/11/25 10:36:41;;;;;;;13.13;5.95;;;;;;;8.93;100.00;101286.47;10544909;28;20046;-73
2022/11/25 10:41:49;;;;;;;16.48;5.15;;;;;;;9.05;100.00;101279.13;10544368;28;20028;-73
2022/11/25 10:47:00;;;;;;;14.38;5.20;;;;;;;9.15;100.00;101283.19;10562969;28;20035;-73
2022/11/25 10:52:00;;;;;;;11.43;4.68;;;;;;;9.34;100.00;101284.78;10545992;28;20097;-73
2022/11/25 10:57:02;;;;;;;12.00;4.97;;;;;;;9.50;100.00;101281.31;10565683;28;20031;-73
2022/11/25 11:02:20;;;;;;;12.60;4.70;;;;;;;9.66;100.00;101299.03;10568276;28;20499;-73
2022/11/25 11:07:21;;;;;;;12.43;3.58;;;;;;;9.69;100.00;101286.72;10588323;28;20062;-74
2022/11/25 11:12:22;;;;;;;13.30;4.95;;;;;;;9.83;100.00;101296.41;10553048;28;20046;-73
2022/11/25 11:17:30;;;;;;;9.00;3.33;;;;;;;10.03;100.00;101317.25;10552989;28;20065;-74
2022/11/25 11:22:30;;;;;;;7.78;3.47;;;;;;;10.21;100.00;101319.84;10587706;28;20040;-73
2022/11/25 11:27:31;;;;;;;8.90;3.45;;;;;;;10.35;100.00;101322.38;10586291;28;20031;-71
2022/11/25 11:32:32;;;;;;;14.38;3.65;;;;;;;10.46;100.00;101335.28;10550579;28;20032;-71
2022/11/25 11:37:38;;;;;;;12.85;3.65;;;;;;;10.60;100.00;101325.66;10550936;28;20471;-71
2022/11/25 11:43:06;;;;;;;10.65;3.60;;;;;;;10.86;100.00;101331.69;10551659;28;20043;-71
2022/11/25 11:48:12;;;;;;;6.38;2.72;;;;;;;11.13;100.00;101331.09;10586229;28;20429;-71
2022/11/25 11:53:30;;;;;;;8.98;2.60;;;;;;;11.22;100.00;101337.88;10568929;28;20048;-71
2022/11/25 11:58:37;;;;;;;13.35;3.33;;;;;;;10.90;100.00;101294.31;10585578;27;20040;-71
2022/11/25 12:03:41;;;;;;;16.77;4.75;;;;;;;11.20;100.00;101342.81;10583836;28;20047;-71
2022/11/25 12:08:57;;;;;;;14.82;4.10;;;;;;;11.28;100.00;101354.25;10549621;28;20036;-71
2022/11/25 12:14:10;;;;;;;13.52;2.40;;;;;;;11.45;100.00;101365.34;10569622;28;20121;-71
2022/11/25 12:19:13;;;;;;;13.98;3.35;;;;;;;11.38;100.00;101363.81;10552267;28;20032;-72
2022/11/25 12:24:26;;;;;;;12.05;3.15;;;;;;;10.77;100.00;101358.78;10584811;28;20039;-71
2022/11/25 12:29:47;;;;;;;13.20;3.92;;;;;;;10.49;100.00;101389.84;10571868;27;20499;-71
2022/11/25 12:35:09;;;;;;;9.60;2.40;;;;;;;10.59;100.00;101389.25;10549411;28;20038;-71
2022/11/25 12:40:14;;;;;;;13.20;3.35;;;;;;;10.93;100.00;101395.72;10518646;28;20118;-70
2022/11/25 12:45:20;;;;;;;11.45;2.60;;;;;;;10.73;100.00;101398.06;10565888;27;20051;-71
2022/11/25 12:50:49;;;;;;;11.52;2.90;;;;;;;10.70;100.00;101408.47;10566276;28;20062;-72
2022/11/25 12:55:50;;;;;;;20.02;3.85;;;;;;;10.62;100.00;101355.69;10567305;28;20059;-72
2022/11/25 13:00:56;;;;;;;9.40;2.88;;;;;;;11.05;100.00;101415.81;10565257;28;20035;-72
2022/11/25 13:06:12;;;;;;;12.13;2.50;;;;;;;11.13;100.00;101411.03;10584513;27;20023;-69
2022/11/25 13:11:43;;;;;;;14.95;2.85;;;;;;;11.56;100.00;101417.91;10584151;27;20036;-70
2022/11/25 13:16:44;;;;;;;6.88;1.90;;;;;;;11.62;100.00;101414.16;10583905;27;20035;-70
2022/11/25 13:22:01;;;;;;;10.15;2.42;;;;;;;11.66;100.00;101426.38;10548762;27;20031;-70
2022/11/25 13:27:04;;;;;;;;;;;;;;;11.57;100.00;101430.59;10567107;28;20035;-70
2022/11/25 13:32:41;;;;;;;12.18;2.47;;;;;;;11.39;100.00;101438.00;10583610;27;19922;-69
2022/11/25 13:37:41;;;;;;;11.77;2.47;;;;;;;10.93;100.00;101441.75;10581578;27;20044;-69
2022/11/25 13:42:42;;;;;;;10.35;2.75;;;;;;;10.55;100.00;101460.47;10582602;27;20050;-70
2022/11/25 13:47:46;;;;;;;19.42;2.92;;;;;;;10.43;100.00;101457.69;10583379;27;20032;-70
2022/11/25 13:52:47;;;;;;;12.40;2.90;;;;;;;10.46;100.00;101473.75;10565217;27;20056;-69
2022/11/25 13:57:59;;;;;;;11.73;2.20;;;;;;;10.43;100.00;101478.91;10581693;28;20047;-69
2022/11/25 14:03:17;;;;;;;14.20;2.70;;;;;;;10.25;100.00;101494.41;10565894;28;20040;-69
2022/11/25 14:08:25;;;;;;;12.95;3.03;;;;;;;9.98;100.00;101482.97;10582134;28;20047;-70
2022/11/25 14:13:53;;;;;;;16.00;3.53;;;;;;;9.94;100.00;101497.44;10581271;28;20039;-70
2022/11/25 14:19:04;;;;;;;14.25;2.28;;;;;;;9.90;100.00;101503.44;10582996;28;20035;-70
2022/11/25 14:24:40;;;;;;;18.25;3.88;;;;;;;10.00;100.00;101502.00;10582362;28;20036;-70
2022/11/25 14:29:45;;;;;;;12.10;3.88;;;;;;;9.92;100.00;101505.09;10486389;28;20036;-69
2022/11/25 14:34:53;;;;;;;19.73;3.53;;;;;;;9.90;100.00;101514.44;10591043;27;20077;-70
2022/11/25 14:39:59;;;;;;;18.65;4.13;;;;;;;9.72;100.00;101506.22;10573104;28;20032;-69
2022/11/25 14:44:59;;;;;;;11.77;3.03;;;;;;;9.55;100.00;101541.78;10572631;27;20044;-69
2022/11/25 14:49:59;;;;;;;17.77;3.25;;;;;;;9.37;100.00;101548.13;10588948;27;20028;-70
2022/11/25 14:55:01;;;;;;;15.40;3.20;;;;;;;9.23;100.00;101554.84;10589857;27;20047;-69
2022/11/25 15:00:05;;;;;;;16.63;3.63;;;;;;;9.07;100.00;101553.53;10570073;27;20044;-70
2022/11/25 15:05:09;;;;;;;15.27;2.70;;;;;;;9.08;100.00;101588.19;10569804;27;20552;-70
2022/11/25 15:10:35;;;;;;;16.95;3.63;;;;;;;8.96;100.00;101590.81;10587489;28;20087;-69
2022/11/25 15:15:35;;;;;;;14.50;3.25;;;;;;;8.95;100.00;101594.66;10554639;27;20533;-69
2022/11/25 15:20:36;;;;;;;16.05;3.53;;;;;;;8.93;100.00;101612.41;10570380;27;20040;-69
2022/11/25 15:25:46;;;;;;;24.52;4.13;;;;;;;8.93;100.00;101627.00;10549831;27;20036;-68
2022/11/25 15:30:58;;;;;;;27.02;4.43;;;;;;;8.82;100.00;101622.22;10512649;27;20539;-69
2022/11/25 15:35:58;;;;;;;25.77;3.90;;;;;;;8.75;100.00;101643.41;10570555;27;20027;-69
2022/11/25 15:40:58;;;;;;;15.55;3.40;;;;;;;8.58;100.00;101641.22;10570320;27;20032;-69
2022/11/25 15:46:03;;;;;;;14.60;4.30;;;;;;;8.57;100.00;101655.16;10569000;27;20065;-70
2022/11/25 15:51:05;;;;;;;19.70;4.85;;;;;;;8.47;100.00;101674.84;10567384;27;20040;-68
2022/11/25 15:56:05;;;;;;;12.57;3.05;;;;;;;8.29;100.00;101679.13;10552439;27;20037;-69
2022/11/25 16:01:14;;;;;;;21.38;4.60;;;;;;;8.12;100.00;101683.44;10528444;27;20071;-70
2022/11/25 16:06:27;;;;;;;16.67;4.20;;;;;;;7.95;100.00;101706.94;10568738;27;20052;-70
2022/11/25 16:11:31;;;;;;;23.40;4.20;;;;;;;7.72;100.00;101702.78;10562111;27;20048;-70
2022/11/25 16:16:32;;;;;;;22.67;6.63;;;;;;;7.30;100.00;101672.09;10565375;27;20039;-70
2022/11/25 16:21:35;;;;;;;20.80;5.05;;;;;;;7.37;100.00;101733.19;10520326;27;20431;-70
2022/11/25 16:26:38;;;;;;;18.13;4.85;;;;;;;7.14;100.00;101730.06;10525750;27;20043;-70
2022/11/25 16:31:39;;;;;;;18.50;5.28;;;;;;;7.10;100.00;101739.75;10511068;27;20052;-70
2022/11/25 16:36:40;;;;;;;20.13;5.47;;;;;;;7.03;100.00;101754.28;10528685;27;20052;-70
2022/11/25 16:41:41;;;;;;;14.85;4.53;;;;;;;6.91;100.00;101757.84;10543294;28;20196;-70
2022/11/25 16:46:41;;;;;;;15.70;5.80;;;;;;;6.84;100.00;101774.22;10527805;28;20077;-70
2022/11/25 16:51:42;;;;;;;24.67;4.85;;;;;;;6.69;100.00;101782.63;10546751;28;20062;-69
2022/11/25 16:56:42;;;;;;;17.38;4.82;;;;;;;6.57;100.00;101787.00;10545779;28;20057;-69
2022/11/25 17:01:43;;;;;;;20.90;5.47;;;;;;;6.53;100.00;101800.28;10530895;28;20103;-71
2022/11/25 17:06:43;;;;;;;22.85;5.75;;;;;;;6.40;100.00;101803.78;10544429;28;20036;-71
2022/11/25 17:11:53;;;;;;;22.67;5.25;;;;;;;6.33;100.00;101810.28;10564839;28;20059;-71
2022/11/25 17:16:53;;;;;;;20.15;5.70;;;;;;;6.34;100.00;101821.00;10546678;28;20050;-70
2022/11/25 17:21:54;;;;;;;27.38;8.18;;;;;;;6.23;100.00;101816.94;10533975;27;20058;-71
2022/11/25 17:27:02;;;;;;;33.25;7.97;;;;;;;6.19;100.00;101837.53;10602727;27;20031;-70
2022/11/25 17:32:02;;;;;;;20.73;6.57;;;;;;;6.08;100.00;101838.13;10568352;27;20099;-71
2022/11/25 17:37:05;;;;;;;26.15;6.80;;;;;;;6.03;100.00;101829.66;10560440;27;20032;-71
2022/11/25 17:42:06;;;;;;;32.70;7.35;;;;;;;6.10;100.00;101859.78;10589879;27;20118;-71
2022/11/25 17:47:10;;;;;;;22.58;7.35;;;;;;;6.14;100.00;101878.34;10567091;28;20027;-71
2022/11/25 17:52:11;;;;;;;38.00;9.68;;;;;;;6.07;100.00;101896.56;10542408;28;20069;-71
2022/11/25 17:57:13;;;;;;;28.52;8.23;;;;;;;6.03;100.00;101903.47;10562872;28;20103;-71
2022/11/25 18:02:18;;;;;;;31.55;10.85;;;;;;;5.84;100.00;101899.50;10576661;27;20063;-72
2022/11/25 18:07:19;;;;;;;30.15;10.52;;;;;;;5.92;100.00;101928.59;10538207;28;20042;-72
2022/11/25 18:12:26;;;;;;;34.17;9.68;;;;;;;5.86;100.00;101927.50;10560658;28;20046;-73
2022/11/25 18:17:26;;;;;;;32.47;9.45;;;;;;;5.54;100.00;101882.44;10562454;28;20036;-72
2022/11/25 18:22:29;;;;;;;30.17;10.63;;;;;;;5.76;100.00;101919.63;10562365;28;20040;-73
2022/11/25 18:27:30;;;;;;;37.80;11.07;;;;;;;5.87;100.00;101940.13;10581002;28;20099;-73
2022/11/25 18:32:31;;;;;;;32.75;9.68;;;;;;;5.91;100.00;101970.63;10547678;28;20035;-73
2022/11/25 18:37:31;;;;;;;32.50;10.85;;;;;;;5.89;100.00;101972.69;10573470;28;20042;-73
2022/11/25 18:42:32;;;;;;;34.47;11.50;;;;;;;5.83;100.00;101966.16;10579344;28;20089;-74
2022/11/25 18:47:32;;;;;;;38.55;11.57;;;;;;;5.96;100.00;101993.63;10561520;28;20046;-73
2022/11/25 18:52:33;;;;;;;38.05;12.55;;;;;;;5.83;100.00;101991.59;10561736;28;20036;-73
2022/11/25 18:57:33;;;;;;;39.33;16.10;;;;;;;5.78;100.00;102004.97;10526957;28;20040;-74
2022/11/25 19:02:34;;;;;;;54.88;20.20;;;;;;;5.61;100.00;102003.56;10580151;28;20039;-73
2022/11/25 19:07:34;;;;;;;69.70;30.80;;;;;;;5.87;100.00;102027.59;10599360;28;20051;-74
2022/11/25 19:12:35;;;;;;;64.03;35.30;;;;;;;5.84;100.00;102026.06;10513350;28;20044;-74
2022/11/25 19:17:35;;;;;;;69.10;32.03;;;;;;;5.75;100.00;102026.41;10518711;27;20044;-73
2022/11/25 19:22:36;;;;;;;57.90;26.85;;;;;;;5.78;100.00;102043.25;10510322;27;20481;-73
2022/11/25 19:27:56;;;;;;;45.88;17.40;;;;;;;5.76;100.00;102042.59;10489783;28;20545;-73
2022/11/25 19:32:57;;;;;;;40.70;16.15;;;;;;;5.93;100.00;102066.94;10515621;27;20392;-73
2022/11/25 19:37:57;;;;;;;54.50;15.68;;;;;;;5.90;100.00;102073.66;10522047;28;21076;-73
2022/11/25 19:42:58;;;;;;;46.53;20.58;;;;;;;5.84;100.00;102069.78;10543159;28;20089;-74
2022/11/25 19:47:58;;;;;;;56.95;31.02;;;;;;;5.71;100.00;102069.66;10527983;28;20035;-73
2022/11/25 19:52:59;;;;;;;67.53;31.55;;;;;;;5.35;100.00;102021.31;10517178;28;20047;-72
2022/11/25 19:57:59;;;;;;;69.57;31.52;;;;;;;5.61;100.00;102090.97;10506091;28;20032;-72
2022/11/25 20:03:00;;;;;;;81.38;35.53;;;;;;;5.66;100.00;102115.81;10552365;27;20036;-72
2022/11/25 20:08:00;;;;;;;67.25;31.17;;;;;;;5.62;100.00;102109.03;10541889;28;20050;-72
2022/11/25 20:13:01;;;;;;;67.25;33.90;;;;;;;5.59;100.00;102112.16;10543274;28;20039;-73
2022/11/25 20:18:02;;;;;;;63.97;33.63;;;;;;;5.49;100.00;102114.34;10527829;28;20052;-72
2022/11/25 20:23:44;;;;;;;75.90;32.70;;;;;;;5.33;100.00;102132.63;10542041;28;20054;-72
2022/11/25 20:28:44;;;;;;;61.17;32.03;;;;;;;5.18;100.00;102134.50;10463169;27;20110;-72
2022/11/25 20:33:47;;;;;;;60.80;25.05;;;;;;;5.12;100.00;102138.81;10527394;27;20536;-73
2022/11/25 20:38:49;;;;;;;61.25;20.52;;;;;;;5.02;100.00;102136.41;10537909;27;20043;-71
2022/11/25 20:43:49;;;;;;;38.60;14.85;;;;;;;4.87;100.00;102138.25;10528056;27;20062;-72
2022/11/25 20:48:55;;;;;;;46.75;15.18;;;;;;;4.87;100.00;102143.69;10536931;27;20059;-71
2022/11/25 20:53:57;;;;;;;45.93;13.93;;;;;;;4.84;100.00;102149.53;10519993;27;20052;-72
2022/11/25 20:58:57;;;;;;;41.58;13.60;;;;;;;4.82;100.00;102163.34;10528110;27;20085;-72
2022/11/25 21:03:57;;;;;;;37.55;11.95;;;;;;;4.82;100.00;102189.81;10524641;27;20526;-72
2022/11/25 21:09:00;;;;;;;32.53;12.70;;;;;;;4.61;100.00;102183.16;10618473;27;20564;-73
2022/11/25 21:14:01;;;;;;;41.97;12.50;;;;;;;4.47;100.00;102192.13;10616916;27;20054;-72
2022/11/25 21:19:01;;;;;;;36.05;11.35;;;;;;;4.24;100.00;102176.59;10621008;27;20031;-72
2022/11/25 21:24:06;;;;;;;35.42;11.35;;;;;;;4.18;100.00;102199.13;10597743;27;20039;-72
2022/11/25 21:29:08;;;;;;;34.45;11.80;;;;;;;4.07;100.00;102207.69;10554698;27;20035;-72
2022/11/25 21:34:10;;;;;;;34.47;12.60;;;;;;;3.89;100.00;102204.41;10567185;27;20069;-72
2022/11/25 21:39:25;;;;;;;40.95;12.48;;;;;;;3.91;100.00;102221.41;10578901;27;20036;-72
2022/11/25 21:44:33;;;;;;;39.97;12.82;;;;;;;3.75;100.00;102225.91;10565049;28;20036;-72
2022/11/25 21:49:34;;;;;;;34.97;14.43;;;;;;;3.67;100.00;102250.44;10595774;27;20038;-72
2022/11/25 21:54:34;;;;;;;32.08;12.70;;;;;;;3.58;100.00;102240.59;10559966;27;20035;-73
2022/11/25 21:59:35;;;;;;;49.67;15.30;;;;;;;3.49;100.00;102252.53;10558410;27;20032;-73
2022/11/25 22:04:35;;;;;;;44.08;15.27;;;;;;;3.36;100.00;102247.63;10511161;27;20031;-72
2022/11/25 22:09:36;;;;;;;43.95;16.02;;;;;;;3.41;100.00;102273.31;10550774;27;20032;-72
2022/11/25 22:14:36;;;;;;;35.05;15.82;;;;;;;3.26;100.00;102249.69;10564706;28;20028;-72
2022/11/25 22:19:37;;;;;;;38.20;14.95;;;;;;;3.36;100.00;102274.84;10562752;27;20036;-72
2022/11/25 22:24:37;;;;;;;39.42;14.45;;;;;;;3.25;100.00;102273.34;10537993;28;20072;-72
2022/11/25 22:29:38;;;;;;;37.78;13.23;;;;;;;3.10;100.00;102264.13;10522303;28;20464;-72
2022/11/25 22:34:38;;;;;;;38.85;13.30;;;;;;;3.17;100.00;102285.06;10505734;28;20712;-73
2022/11/25 22:39:39;;;;;;;32.40;11.02;;;;;;;3.14;100.00;102306.31;10500863;28;20479;-72
2022/11/25 22:44:44;;;;;;;29.13;9.98;;;;;;;2.99;100.00;102289.81;10531575;28;20719;-72
2022/11/25 22:49:45;;;;;;;34.85;11.35;;;;;;;3.08;100.00;102302.44;10529728;28;20063;-71
2022/11/25 22:54:46;;;;;;;27.38;9.75;;;;;;;2.95;100.00;102294.75;10551337;28;20028;-72
2022/11/25 22:59:47;;;;;;;30.13;9.38;;;;;;;2.94;100.00;102300.38;10521089;28;20044;-72
2022/11/25 23:04:51;;;;;;;27.45;9.45;;;;;;;2.72;100.00;102283.69;10529914;28;20032;-72